Terminal Aerodrome Forecast
Issued by NWS Grand Junction, CO

Home | Current Version | Previous Version | Text Only | Print | Product List | Glossary On
Versions: 1 2 3 4 5 6 7 8 9 10 11 12 13 14 15 16 17 18 19 20 21 22 23 24 25 26 27 28 29 30 31 32
000
FTUS45 KGJT 211740
TAFGJT
TAF
KGJT 211740Z 2118/2218 VRB06KT P6SM FEW080 SCT120
     FM211900 27008KT P6SM VCTS BKN080CB BKN120
     FM220000 17010G20KT P6SM VCTS BKN080CB OVC110
     FM220600 11008KT P6SM SCT080 BKN150
     FM221200 13007KT P6SM SCT150=

USA.gov is the U.S. government's official web portal to all federal, state and local government web resources and services.